Time;durP1;ratioP1;P1;durP2;ratioP2;P2;SDS_P1;SDS_P2;PMS_P1;PMS_P2;Temp;Humidity;BMP_temperature;BMP_pressure;BME280_temperature;BME280_humidity;BME280_pressure;Samples;Min_cycle;Max_cycle;Signal;HPM_P1;HPM_P2
2022/10/01 00:00:33;;;;;;;7.70;3.92;;;11.80;99.90;;;;;;5032592;28;20108;-94
2022/10/01 00:02:59;;;;;;;7.00;3.42;;;11.70;99.90;;;;;;5049726;28;20383;-94
2022/10/01 00:05:25;;;;;;;6.25;3.97;;;11.70;99.90;;;;;;5033194;28;20386;-93
2022/10/01 00:07:51;;;;;;;4.90;3.65;;;11.70;99.90;;;;;;5032882;28;20059;-94
2022/10/01 00:10:17;;;;;;;5.28;3.88;;;11.70;99.90;;;;;;5032681;28;20078;-94
2022/10/01 00:12:47;;;;;;;8.25;4.10;;;11.70;99.90;;;;;;5034695;28;20030;-96
2022/10/01 00:15:16;;;;;;;5.45;3.58;;;11.70;99.90;;;;;;5033589;28;20362;-96
2022/10/01 00:17:42;;;;;;;6.03;4.22;;;11.70;99.90;;;;;;5033575;28;20036;-95
2022/10/01 00:20:08;;;;;;;4.68;4.07;;;11.60;99.90;;;;;;5022145;28;20029;-96
2022/10/01 00:22:35;;;;;;;5.18;3.67;;;11.60;99.90;;;;;;5021728;28;20493;-95
2022/10/01 00:25:01;;;;;;;4.78;3.90;;;11.60;99.90;;;;;;5033602;28;20034;-95
2022/10/01 00:27:27;;;;;;;6.05;4.05;;;11.60;99.90;;;;;;5033025;28;20040;-95
2022/10/01 00:29:53;;;;;;;4.88;3.45;;;11.70;99.90;;;;;;5032245;28;20037;-95
2022/10/01 00:32:20;;;;;;;6.55;4.70;;;11.60;99.90;;;;;;5034824;28;20033;-95
2022/10/01 00:34:45;;;;;;;8.85;4.70;;;11.60;99.90;;;;;;5051777;28;20481;-95
2022/10/01 00:37:11;;;;;;;8.02;4.50;;;11.60;99.90;;;;;;5034322;28;20052;-95
2022/10/01 00:39:37;;;;;;;6.20;4.15;;;11.60;99.90;;;;;;5032318;28;20479;-96
2022/10/01 00:42:20;;;;;;;5.68;4.43;;;11.60;99.90;;;;;;5039675;28;20087;-96
2022/10/01 00:44:48;;;;;;;4.40;3.92;;;11.60;99.90;;;;;;5037414;28;20108;-96
2022/10/01 00:47:29;;;;;;;5.38;4.05;;;11.60;99.90;;;;;;5035617;28;20036;-95
2022/10/01 00:50:19;;;;;;;4.70;3.83;;;11.60;99.90;;;;;;5035963;28;20124;-96
2022/10/01 00:52:51;;;;;;;6.32;3.92;;;11.60;99.90;;;;;;5038031;28;20038;-95
2022/10/01 00:55:25;;;;;;;7.18;3.85;;;11.60;99.90;;;;;;5036391;28;20026;-95
2022/10/01 00:57:53;;;;;;;7.13;3.58;;;11.60;99.90;;;;;;5035181;28;20469;-96
2022/10/01 01:00:19;;;;;;;5.55;3.90;;;11.60;99.90;;;;;;5036897;28;20477;-95
2022/10/01 01:02:44;;;;;;;5.63;3.90;;;11.60;99.90;;;;;;5055457;28;20040;-96
2022/10/01 01:05:13;;;;;;;6.20;4.20;;;11.60;99.90;;;;;;5043445;28;20027;-96
2022/10/01 01:07:44;;;;;;;5.03;3.83;;;11.60;99.90;;;;;;5061975;28;20033;-92
2022/10/01 01:10:12;;;;;;;6.38;4.43;;;11.60;99.90;;;;;;5032565;28;20040;-96
2022/10/01 01:12:49;;;;;;;8.07;4.00;;;11.60;99.90;;;;;;5032958;28;20045;-95
2022/10/01 01:15:35;;;;;;;6.25;4.47;;;11.60;99.90;;;;;;5035294;28;20030;-95
2022/10/01 01:18:21;;;;;;;7.55;4.60;;;11.60;99.90;;;;;;5054327;28;20068;-96
2022/10/01 01:21:15;;;;;;;5.78;4.55;;;11.60;99.90;;;;;;5048531;28;20229;-96
2022/10/01 01:23:58;;;;;;;6.72;4.35;;;11.60;99.90;;;;;;5040645;28;20029;-95
2022/10/01 01:26:32;;;;;;;6.10;4.15;;;11.50;99.90;;;;;;5032217;28;20037;-96
2022/10/01 01:29:05;;;;;;;7.40;4.13;;;11.50;99.90;;;;;;5040584;28;20029;-94
2022/10/01 01:31:37;;;;;;;6.88;4.25;;;11.50;99.90;;;;;;5043682;28;20022;-95
2022/10/01 01:34:11;;;;;;;5.72;4.18;;;11.50;99.90;;;;;;5034160;28;20030;-95
2022/10/01 01:36:41;;;;;;;7.03;4.50;;;11.50;99.90;;;;;;5034329;28;20460;-96
2022/10/01 01:39:11;;;;;;;5.00;3.60;;;11.50;99.90;;;;;;5034313;28;20026;-96
2022/10/01 01:41:40;;;;;;;5.82;3.30;;;11.50;99.90;;;;;;5049870;28;20473;-95
2022/10/01 01:44:11;;;;;;;5.18;4.00;;;11.50;99.90;;;;;;5047581;28;20030;-94
2022/10/01 01:46:42;;;;;;;4.60;2.78;;;11.50;99.90;;;;;;5031322;28;20025;-95
2022/10/01 01:49:08;;;;;;;4.85;3.65;;;11.50;99.90;;;;;;5030453;28;20021;-93
2022/10/01 01:51:58;;;;;;;4.93;2.83;;;11.50;99.90;;;;;;5046122;28;20054;-94
2022/10/01 01:54:24;;;;;;;3.47;2.58;;;11.60;99.90;;;;;;5031453;28;20040;-94
2022/10/01 01:56:50;;;;;;;4.35;2.40;;;11.60;99.90;;;;;;5030923;28;20026;-93
2022/10/01 01:59:18;;;;;;;5.85;2.95;;;11.60;99.90;;;;;;5030461;28;20327;-94
2022/10/01 02:01:44;;;;;;;3.13;2.53;;;11.60;99.90;;;;;;5031627;28;20036;-93
2022/10/01 02:04:41;;;;;;;3.95;2.83;;;11.60;99.90;;;;;;5047148;28;20060;-94
2022/10/01 02:07:23;;;;;;;4.85;2.45;;;11.70;99.90;;;;;;5031973;28;20045;-93
2022/10/01 02:10:01;;;;;;;3.72;1.95;;;11.70;99.90;;;;;;5030973;28;20557;-93
2022/10/01 02:12:46;;;;;;;3.15;1.75;;;11.70;99.90;;;;;;5029762;28;20030;-94
2022/10/01 02:15:26;;;;;;;3.67;1.67;;;11.70;99.90;;;;;;5031642;28;20033;-94
2022/10/01 02:18:15;;;;;;;2.17;1.45;;;11.60;99.90;;;;;;5031708;28;20026;-96
2022/10/01 02:20:47;;;;;;;2.40;1.30;;;11.70;99.90;;;;;;5030062;28;20068;-94
2022/10/01 02:23:28;;;;;;;1.98;1.30;;;11.70;99.90;;;;;;5030205;28;20045;-94
2022/10/01 02:26:03;;;;;;;1.65;1.10;;;11.70;99.90;;;;;;5031057;28;20126;-93
2022/10/01 02:28:32;;;;;;;1.92;1.20;;;11.70;99.90;;;;;;5033734;28;20030;-92
2022/10/01 02:31:00;;;;;;;3.05;1.00;;;11.70;99.90;;;;;;5032872;28;20025;-92
2022/10/01 02:33:31;;;;;;;2.65;1.23;;;11.70;99.90;;;;;;5030792;28;20484;-93
2022/10/01 02:35:58;;;;;;;2.08;0.98;;;11.60;99.90;;;;;;5033840;28;20489;-90
2022/10/01 02:38:25;;;;;;;2.63;1.00;;;11.60;99.90;;;;;;5033812;28;20034;-93
2022/10/01 02:40:55;;;;;;;1.95;1.00;;;11.60;99.90;;;;;;5032815;28;20029;-91
2022/10/01 02:43:31;;;;;;;2.22;1.10;;;11.60;99.90;;;;;;5032730;28;20033;-93
2022/10/01 02:46:05;;;;;;;2.55;0.90;;;11.60;99.90;;;;;;5034872;28;20052;-92
2022/10/01 02:48:31;;;;;;;1.58;0.80;;;11.60;99.90;;;;;;5033941;28;20025;-92
2022/10/01 02:51:14;;;;;;;1.52;0.93;;;11.60;99.90;;;;;;5033674;28;20056;-92
2022/10/01 02:53:47;;;;;;;1.40;0.57;;;11.60;99.90;;;;;;5030354;28;20025;-92
2022/10/01 02:57:21;;;;;;;1.52;0.85;;;11.60;99.90;;;;;;5033168;28;20026;-92
2022/10/01 02:58:59;;;;;;;4.10;1.42;;;11.60;99.90;;;;;;5035238;28;20036;-91
2022/10/01 03:01:24;;;;;;;1.33;0.60;;;11.60;99.90;;;;;;5034286;28;20037;-91
2022/10/01 03:03:50;;;;;;;1.15;0.68;;;11.60;99.90;;;;;;5031025;28;20506;-91
2022/10/01 03:06:15;;;;;;;1.50;0.80;;;11.60;99.90;;;;;;5034171;28;20014;-91
2022/10/01 03:08:41;;;;;;;1.92;0.60;;;11.60;99.90;;;;;;5032946;28;20021;-90
2022/10/01 03:11:08;;;;;;;1.50;0.60;;;11.60;99.90;;;;;;5034281;28;20171;-90
2022/10/01 03:13:33;;;;;;;1.27;0.50;;;11.60;99.90;;;;;;5049659;28;20045;-91
2022/10/01 03:15:59;;;;;;;1.23;0.50;;;11.60;99.90;;;;;;5033931;28;20064;-93
2022/10/01 03:18:25;;;;;;;0.80;0.50;;;11.60;99.90;;;;;;5033503;28;20044;-92
2022/10/01 03:20:50;;;;;;;2.95;0.77;;;11.70;99.90;;;;;;5051163;28;20029;-90
2022/10/01 03:23:16;;;;;;;1.20;0.50;;;11.70;99.90;;;;;;5031900;28;20560;-92
2022/10/01 03:25:41;;;;;;;1.00;0.60;;;11.70;99.90;;;;;;5033197;28;20029;-92
2022/10/01 03:28:07;;;;;;;0.98;0.43;;;11.70;99.90;;;;;;5033586;28;20025;-92
2022/10/01 03:30:33;;;;;;;0.85;0.43;;;11.70;99.90;;;;;;5030793;28;20053;-92
2022/10/01 03:32:58;;;;;;;2.20;0.60;;;11.70;99.90;;;;;;5032750;28;20108;-92
2022/10/01 03:35:24;;;;;;;1.08;0.60;;;11.70;99.90;;;;;;5034843;28;20075;-94
2022/10/01 03:37:49;;;;;;;1.13;0.60;;;11.70;99.90;;;;;;5034491;28;20148;-94
2022/10/01 03:40:15;;;;;;;1.45;0.50;;;11.80;99.90;;;;;;5031933;28;20026;-95
2022/10/01 03:42:40;;;;;;;1.83;0.50;;;11.70;99.90;;;;;;5033688;28;20056;-93
2022/10/01 03:45:06;;;;;;;0.68;0.40;;;11.80;99.90;;;;;;5033674;28;20033;-94
2022/10/01 03:47:32;;;;;;;1.00;0.50;;;11.80;99.90;;;;;;5033934;28;20022;-93
2022/10/01 03:49:57;;;;;;;0.80;0.35;;;11.80;99.90;;;;;;5031523;28;20025;-92
2022/10/01 03:52:23;;;;;;;1.33;0.47;;;11.80;99.90;;;;;;5034190;28;20025;-92
2022/10/01 03:54:49;;;;;;;1.98;0.40;;;11.80;99.90;;;;;;5032372;28;20038;-93
2022/10/01 03:57:14;;;;;;;1.00;0.40;;;11.90;99.90;;;;;;5027262;28;20022;-92
2022/10/01 03:59:40;;;;;;;0.90;0.47;;;11.90;99.90;;;;;;5031475;28;20030;-89
2022/10/01 04:02:06;;;;;;;1.65;0.40;;;11.90;99.90;;;;;;5033073;28;20059;-93
2022/10/01 04:04:31;;;;;;;1.30;0.40;;;12.00;99.90;;;;;;5032192;28;20116;-94
2022/10/01 04:06:57;;;;;;;2.28;0.50;;;12.00;99.90;;;;;;5033180;28;20183;-91
2022/10/01 04:09:22;;;;;;;0.90;0.50;;;12.00;99.90;;;;;;5027611;28;20608;-93
2022/10/01 04:11:48;;;;;;;1.02;0.50;;;12.00;99.90;;;;;;5020533;28;20033;-91
2022/10/01 04:14:13;;;;;;;3.22;0.60;;;12.00;99.90;;;;;;5024881;28;20045;-92
2022/10/01 04:16:39;;;;;;;1.67;0.60;;;12.10;99.90;;;;;;5032208;28;20064;-92
2022/10/01 04:19:04;;;;;;;1.10;0.40;;;12.10;99.90;;;;;;5031197;28;20057;-94
2022/10/01 04:21:30;;;;;;;0.75;0.35;;;12.10;99.90;;;;;;5032788;28;20034;-92
2022/10/01 04:23:55;;;;;;;0.80;0.45;;;12.10;99.90;;;;;;5032936;28;20029;-93
2022/10/01 04:26:21;;;;;;;0.82;0.50;;;12.10;99.90;;;;;;5032966;28;20061;-91
2022/10/01 04:28:47;;;;;;;1.75;0.40;;;12.20;99.90;;;;;;5031241;28;20064;-92
2022/10/01 04:31:25;;;;;;;1.73;0.40;;;12.10;99.90;;;;;;5049052;28;20065;-93
2022/10/01 04:33:52;;;;;;;1.27;0.45;;;12.20;99.90;;;;;;5031800;28;20385;-90
2022/10/01 04:36:19;;;;;;;1.73;0.35;;;12.20;99.90;;;;;;5032945;28;20018;-90
2022/10/01 04:38:44;;;;;;;1.42;0.40;;;12.20;99.90;;;;;;5031430;28;20112;-92
2022/10/01 04:41:10;;;;;;;1.60;0.40;;;12.30;99.90;;;;;;5032255;28;20457;-91
2022/10/01 04:43:36;;;;;;;1.58;0.40;;;12.30;99.90;;;;;;5032306;28;20513;-93
2022/10/01 04:46:01;;;;;;;1.10;0.40;;;12.30;99.90;;;;;;5032014;28;20033;-90
2022/10/01 04:48:27;;;;;;;3.10;0.40;;;12.30;99.90;;;;;;5031769;28;20036;-94
2022/10/01 04:50:52;;;;;;;1.77;0.30;;;12.30;99.90;;;;;;5046232;28;20045;-93
2022/10/01 04:53:18;;;;;;;0.70;0.30;;;12.40;99.90;;;;;;5028656;28;20034;-94
2022/10/01 04:55:45;;;;;;;1.63;0.35;;;12.40;99.90;;;;;;5032616;28;20030;-93
2022/10/01 04:58:11;;;;;;;1.80;0.30;;;12.40;99.90;;;;;;5030966;28;20033;-94
2022/10/01 05:00:36;;;;;;;1.10;0.30;;;12.40;99.90;;;;;;5036500;28;20017;-93
2022/10/01 05:03:02;;;;;;;1.40;0.40;;;12.40;99.90;;;;;;5032822;28;20480;-93
2022/10/01 05:05:28;;;;;;;1.63;0.50;;;12.50;99.90;;;;;;5031569;28;20369;-91
2022/10/01 05:07:54;;;;;;;1.63;0.50;;;12.50;99.90;;;;;;5030772;28;20071;-91
2022/10/01 05:10:21;;;;;;;1.30;0.47;;;12.50;99.90;;;;;;5030589;28;20029;-92
2022/10/01 05:12:48;;;;;;;1.10;0.50;;;12.50;99.90;;;;;;5035127;28;20370;-92
2022/10/01 05:15:15;;;;;;;0.73;0.40;;;12.50;99.90;;;;;;5033231;28;20018;-93
2022/10/01 05:17:41;;;;;;;1.40;0.80;;;12.60;99.90;;;;;;5031507;28;20089;-92
2022/10/01 05:20:14;;;;;;;2.33;0.40;;;12.60;99.90;;;;;;5045709;28;20124;-91
2022/10/01 05:22:40;;;;;;;1.00;0.50;;;12.60;99.90;;;;;;5033483;28;20037;-91
2022/10/01 05:25:06;;;;;;;0.77;0.40;;;12.60;99.90;;;;;;5034131;28;20032;-92
2022/10/01 05:27:35;;;;;;;0.82;0.50;;;12.60;99.90;;;;;;5029426;28;20029;-90
2022/10/01 05:30:01;;;;;;;1.30;0.60;;;12.60;99.90;;;;;;5023732;28;20056;-91
2022/10/01 05:32:27;;;;;;;1.27;0.70;;;12.60;99.90;;;;;;5030981;28;20056;-91
2022/10/01 05:34:53;;;;;;;2.13;0.77;;;12.60;99.90;;;;;;5040526;28;20021;-95
2022/10/01 05:37:19;;;;;;;1.30;0.70;;;12.70;99.90;;;;;;5068773;28;20400;-92
2022/10/01 05:39:44;;;;;;;1.13;0.77;;;12.70;99.90;;;;;;5051125;28;20025;-93
2022/10/01 05:42:10;;;;;;;2.83;1.23;;;12.60;99.90;;;;;;5029564;28;20049;-93
2022/10/01 05:44:39;;;;;;;2.72;1.25;;;12.60;99.90;;;;;;5031836;28;20067;-92
2022/10/01 05:47:05;;;;;;;2.13;1.75;;;12.70;99.90;;;;;;5028724;28;20052;-91
2022/10/01 05:49:32;;;;;;;3.03;1.63;;;12.60;99.90;;;;;;5027596;28;20022;-90
2022/10/01 05:51:59;;;;;;;2.72;1.90;;;12.60;99.90;;;;;;5028640;28;20469;-93
2022/10/01 05:54:28;;;;;;;2.92;2.15;;;12.70;99.90;;;;;;5030906;28;20056;-90
2022/10/01 05:56:54;;;;;;;5.20;2.58;;;12.60;99.90;;;;;;5030839;28;20095;-91
2022/10/01 05:59:19;;;;;;;2.88;2.47;;;12.70;99.90;;;;;;5029215;28;20037;-91
2022/10/01 06:01:45;;;;;;;2.97;2.47;;;12.70;99.90;;;;;;5026876;28;20018;-89
2022/10/01 06:04:11;;;;;;;3.92;2.72;;;12.70;99.90;;;;;;5034366;28;20501;-93
2022/10/01 06:06:36;;;;;;;5.43;3.25;;;12.60;99.90;;;;;;5034607;28;20108;-91
2022/10/01 06:09:02;;;;;;;5.63;3.30;;;12.60;99.90;;;;;;5035653;28;20457;-90
2022/10/01 06:11:27;;;;;;;4.22;3.83;;;12.70;99.90;;;;;;5032788;28;20496;-90
2022/10/01 06:13:53;;;;;;;6.18;4.25;;;12.70;99.90;;;;;;5034814;28;20029;-89
2022/10/01 06:16:19;;;;;;;7.03;4.43;;;12.70;99.90;;;;;;5034500;28;20040;-91
2022/10/01 06:18:46;;;;;;;7.15;4.88;;;12.80;99.90;;;;;;5049377;28;20037;-92
2022/10/01 06:21:12;;;;;;;9.30;5.05;;;12.90;99.90;;;;;;5034897;28;20022;-92
2022/10/01 06:23:37;;;;;;;9.40;5.97;;;12.90;99.90;;;;;;5031993;28;20501;-94
2022/10/01 06:26:07;;;;;;;6.53;5.80;;;12.90;99.90;;;;;;5031105;28;20033;-89
2022/10/01 06:28:33;;;;;;;7.57;6.05;;;12.90;99.90;;;;;;5029481;28;20025;-93
2022/10/01 06:31:02;;;;;;;7.85;6.43;;;13.00;99.90;;;;;;5043606;28;20049;-92
2022/10/01 06:33:28;;;;;;;8.00;7.18;;;13.00;99.90;;;;;;5019239;28;20021;-91
2022/10/01 06:35:54;;;;;;;9.60;7.88;;;13.10;99.90;;;;;;5031971;28;20013;-94
2022/10/01 06:38:21;;;;;;;8.80;7.82;;;13.10;99.90;;;;;;5035020;28;20026;-94
2022/10/01 06:40:54;;;;;;;11.18;9.10;;;13.10;99.90;;;;;;5047759;28;20133;-94
2022/10/01 06:43:21;;;;;;;9.95;8.57;;;13.20;99.90;;;;;;5049677;28;20033;-94
2022/10/01 06:45:46;;;;;;;12.82;8.75;;;13.20;99.90;;;;;;5034053;28;20037;-95
2022/10/01 06:48:14;;;;;;;10.88;8.70;;;13.20;99.90;;;;;;5034992;28;20037;-94
2022/10/01 06:50:41;;;;;;;9.85;8.18;;;13.20;99.90;;;;;;5031200;28;20057;-94
2022/10/01 06:53:07;;;;;;;11.23;8.40;;;13.20;99.90;;;;;;5034288;28;20095;-93
2022/10/01 06:55:34;;;;;;;10.32;9.32;;;13.30;99.90;;;;;;5032734;28;20381;-93
2022/10/01 06:58:12;;;;;;;10.65;9.65;;;13.30;99.90;;;;;;5032474;28;20381;-92
2022/10/01 07:00:37;;;;;;;16.67;9.68;;;13.40;99.90;;;;;;5032210;28;20146;-92
2022/10/01 07:03:10;;;;;;;11.10;9.52;;;13.40;99.90;;;;;;5031512;28;20131;-94
2022/10/01 07:05:37;;;;;;;11.23;10.05;;;13.40;99.90;;;;;;5033349;28;20037;-91
2022/10/01 07:08:02;;;;;;;11.63;10.52;;;13.40;99.90;;;;;;5026493;28;20469;-91
2022/10/01 07:10:28;;;;;;;13.35;11.57;;;13.50;99.90;;;;;;5036687;28;20037;-93
2022/10/01 07:12:53;;;;;;;13.32;11.32;;;13.60;99.90;;;;;;5031901;28;20021;-90
2022/10/01 07:15:24;;;;;;;11.95;10.75;;;13.60;99.90;;;;;;5032457;28;20025;-92
2022/10/01 07:17:50;;;;;;;11.60;10.50;;;13.60;99.90;;;;;;5033022;28;20447;-93
2022/10/01 07:20:18;;;;;;;11.82;10.68;;;13.60;99.90;;;;;;5031582;28;20025;-93
2022/10/01 07:22:45;;;;;;;13.85;11.68;;;13.60;99.90;;;;;;5032201;28;20123;-93
2022/10/01 07:25:10;;;;;;;13.77;12.38;;;13.70;99.90;;;;;;5030059;28;20105;-93
2022/10/01 07:27:36;;;;;;;14.27;12.77;;;13.70;99.90;;;;;;5038147;28;20149;-90
2022/10/01 07:30:03;;;;;;;13.98;12.57;;;13.80;99.90;;;;;;5031734;28;20034;-90
2022/10/01 07:32:30;;;;;;;15.50;13.00;;;13.80;99.90;;;;;;5047998;28;20085;-91
2022/10/01 07:34:56;;;;;;;14.85;12.90;;;13.90;99.90;;;;;;5047428;28;20485;-92
2022/10/01 07:37:22;;;;;;;20.55;14.25;;;13.90;99.90;;;;;;5026010;28;20034;-88
2022/10/01 07:39:47;;;;;;;14.90;13.50;;;14.00;99.90;;;;;;5040306;28;20025;-92
2022/10/01 07:42:13;;;;;;;15.82;14.13;;;14.10;99.90;;;;;;5035793;28;20082;-92
2022/10/01 07:44:38;;;;;;;15.45;13.90;;;14.30;99.90;;;;;;5046663;28;20044;-92
2022/10/01 07:47:04;;;;;;;14.75;13.18;;;14.40;99.90;;;;;;5044021;28;20477;-93
2022/10/01 07:49:29;;;;;;;15.15;13.65;;;14.60;99.90;;;;;;5029082;28;20155;-93
2022/10/01 07:51:57;;;;;;;17.40;13.13;;;14.70;99.90;;;;;;5039516;28;20036;-92
2022/10/01 07:54:23;;;;;;;14.63;13.13;;;14.90;99.90;;;;;;5039868;28;20044;-91
2022/10/01 07:56:54;;;;;;;16.63;13.73;;;15.00;99.90;;;;;;5022019;28;20021;-93
2022/10/01 07:59:20;;;;;;;16.33;14.50;;;15.00;99.90;;;;;;5040916;28;20037;-94
2022/10/01 08:01:53;;;;;;;16.15;13.95;;;15.00;99.90;;;;;;5041546;28;20029;-92
2022/10/01 08:07:06;;;;;;;17.48;13.80;;;15.10;99.90;;;;;;5023432;28;20473;-94
2022/10/01 08:09:32;;;;;;;14.75;13.35;;;15.10;99.90;;;;;;5036400;28;20029;-93
2022/10/01 08:11:57;;;;;;;15.95;13.27;;;15.10;99.90;;;;;;5025621;28;20029;-92
2022/10/01 08:14:24;;;;;;;13.15;11.85;;;15.00;99.90;;;;;;5018291;28;20030;-93
2022/10/01 08:16:49;;;;;;;14.68;12.52;;;14.90;99.90;;;;;;5034454;28;20083;-92
2022/10/01 08:19:15;;;;;;;15.57;12.90;;;14.90;99.90;;;;;;5036266;28;20033;-93
2022/10/01 08:21:41;;;;;;;15.90;14.15;;;14.80;99.90;;;;;;5037275;28;20221;-93
2022/10/01 08:24:07;;;;;;;14.13;12.65;;;14.70;99.90;;;;;;5032691;28;20231;-96
2022/10/01 08:26:34;;;;;;;16.33;14.38;;;14.70;99.90;;;;;;5044689;28;20022;-96
2022/10/01 08:28:59;;;;;;;13.10;11.75;;;14.60;99.90;;;;;;5041022;28;20512;-94
2022/10/01 08:31:25;;;;;;;14.77;12.82;;;14.60;99.90;;;;;;5034567;28;20021;-96
2022/10/01 08:33:51;;;;;;;15.68;14.05;;;14.50;99.90;;;;;;5027597;28;20029;-95
2022/10/01 08:36:17;;;;;;;16.25;12.10;;;14.50;99.90;;;;;;5039888;28;20049;-93
2022/10/01 08:38:47;;;;;;;14.10;12.60;;;14.40;99.90;;;;;;5039805;28;20029;-94
2022/10/01 08:41:54;;;;;;;15.93;12.52;;;14.40;99.90;;;;;;5027142;28;20033;-95
2022/10/01 08:44:27;;;;;;;15.10;13.38;;;14.50;99.90;;;;;;5039101;28;20044;-96
2022/10/01 08:46:56;;;;;;;;;;;14.70;99.90;;;;;;5031434;28;20385;-95
2022/10/01 08:49:33;;;;;;;9.75;8.70;;;14.70;99.90;;;;;;5029208;28;19911;-95
2022/10/01 08:52:08;;;;;;;11.30;7.72;;;14.70;99.90;;;;;;5025924;28;20052;-95
2022/10/01 08:54:47;;;;;;;7.38;6.32;;;14.70;99.90;;;;;;5029358;28;20037;-95
2022/10/01 08:57:19;;;;;;;6.75;5.70;;;14.90;99.90;;;;;;5036811;28;20033;-93
2022/10/01 08:59:47;;;;;;;7.10;4.55;;;15.00;99.90;;;;;;5020321;28;20032;-92
2022/10/01 09:02:29;;;;;;;6.10;3.63;;;15.10;99.90;;;;;;5023899;28;20033;-90
2022/10/01 09:05:01;;;;;;;6.93;3.40;;;15.30;99.90;;;;;;5020171;28;20048;-93
2022/10/01 09:07:48;;;;;;;7.13;3.28;;;15.40;99.90;;;;;;5023689;28;20512;-93
2022/10/01 09:10:17;;;;;;;7.82;2.65;;;15.60;99.90;;;;;;5036016;28;20120;-92
2022/10/01 09:13:05;;;;;;;3.83;2.33;;;15.80;99.90;;;;;;5035480;28;20022;-92
2022/10/01 09:15:55;;;;;;;4.70;1.60;;;15.90;99.90;;;;;;5002360;28;20560;-93
2022/10/01 09:18:38;;;;;;;5.03;1.38;;;16.00;99.90;;;;;;5034631;28;20049;-93
2022/10/01 09:21:19;;;;;;;5.47;1.00;;;16.00;99.90;;;;;;5025130;28;20425;-94
2022/10/01 09:24:14;;;;;;;4.30;0.77;;;16.00;99.90;;;;;;5021510;28;20040;-93
2022/10/01 09:26:44;;;;;;;4.95;1.45;;;16.00;99.90;;;;;;5018037;28;20072;-95
2022/10/01 09:29:18;;;;;;;4.32;0.80;;;15.80;99.90;;;;;;5024805;28;20030;-95
2022/10/01 09:31:46;;;;;;;5.53;1.10;;;15.70;99.90;;;;;;5025400;28;20107;-95
2022/10/01 09:34:14;;;;;;;5.13;0.90;;;15.50;99.90;;;;;;5024215;28;20037;-96
2022/10/01 09:37:17;;;;;;;4.10;0.80;;;15.50;99.90;;;;;;5019114;28;20026;-96
2022/10/01 09:39:52;;;;;;;7.35;1.30;;;15.40;99.90;;;;;;5065913;28;20029;-96
2022/10/01 09:42:26;;;;;;;7.45;1.25;;;15.40;99.90;;;;;;5031564;28;20518;-94
2022/10/01 09:44:53;;;;;;;5.78;1.20;;;15.50;99.90;;;;;;5050802;28;20496;-93
2022/10/01 09:47:21;;;;;;;9.40;1.30;;;15.40;99.90;;;;;;5033911;28;20017;-95
2022/10/01 09:49:48;;;;;;;8.40;1.27;;;15.40;99.90;;;;;;5022050;28;20034;-95
2022/10/01 09:52:30;;;;;;;11.10;2.78;;;15.40;99.90;;;;;;5025342;28;20060;-95
2022/10/01 09:55:01;;;;;;;8.23;1.42;;;15.50;99.90;;;;;;5027291;28;20026;-94
2022/10/01 09:57:31;;;;;;;7.27;1.50;;;15.40;99.90;;;;;;5028600;28;20199;-96
2022/10/01 10:00:17;;;;;;;8.57;1.50;;;15.30;99.90;;;;;;5032693;28;20053;-96
2022/10/01 10:02:48;;;;;;;10.77;2.33;;;15.20;99.90;;;;;;5035731;28;20038;-96
2022/10/01 10:05:29;;;;;;;9.10;1.10;;;15.10;99.90;;;;;;5041949;28;20029;-95
2022/10/01 10:07:58;;;;;;;8.43;0.90;;;14.90;99.90;;;;;;5040604;28;20025;-95
2022/10/01 10:10:34;;;;;;;9.68;1.25;;;14.70;99.90;;;;;;5039705;28;20028;-93
2022/10/01 10:13:16;;;;;;;9.07;0.70;;;14.60;99.90;;;;;;5024487;28;20061;-95
2022/10/01 10:15:50;;;;;;;5.07;0.40;;;14.50;99.90;;;;;;5032661;28;20040;-96
2022/10/01 10:18:24;;;;;;;6.20;0.30;;;14.30;99.90;;;;;;5036009;28;20032;-93
2022/10/01 10:20:53;;;;;;;5.82;0.50;;;14.20;99.90;;;;;;5039942;28;20494;-94
2022/10/01 10:23:21;;;;;;;5.30;0.50;;;14.10;99.90;;;;;;5042250;28;20076;-94
2022/10/01 10:25:54;;;;;;;5.22;0.40;;;14.00;99.90;;;;;;5026396;28;20032;-93
2022/10/01 10:28:22;;;;;;;5.93;0.40;;;13.90;99.90;;;;;;5027508;28;20032;-93
2022/10/01 10:30:51;;;;;;;5.90;0.35;;;13.90;99.90;;;;;;5025379;28;20028;-94
2022/10/01 10:33:20;;;;;;;6.72;0.50;;;13.90;99.90;;;;;;5029477;28;20022;-93
2022/10/01 10:35:55;;;;;;;7.30;0.52;;;13.90;99.90;;;;;;5032530;28;20026;-92
2022/10/01 10:38:24;;;;;;;5.38;0.52;;;13.90;99.90;;;;;;5035708;28;20105;-95
2022/10/01 10:40:50;;;;;;;4.97;0.60;;;14.00;99.90;;;;;;5024097;28;20052;-94
2022/10/01 10:43:21;;;;;;;6.60;0.47;;;14.10;99.90;;;;;;5034644;28;20037;-92
2022/10/01 10:45:54;;;;;;;11.65;0.45;;;14.10;99.90;;;;;;5034873;28;20025;-92
2022/10/01 10:48:22;;;;;;;7.90;0.60;;;14.10;99.90;;;;;;5036706;28;20099;-93
2022/10/01 10:50:48;;;;;;;6.38;0.50;;;14.10;99.90;;;;;;5038586;28;20497;-93
2022/10/01 10:53:19;;;;;;;7.65;0.75;;;14.10;99.90;;;;;;5034930;28;20062;-93
2022/10/01 10:55:59;;;;;;;9.52;0.70;;;14.10;99.90;;;;;;5038725;28;20033;-92
2022/10/01 10:58:32;;;;;;;10.68;0.88;;;14.10;99.90;;;;;;5036706;28;20029;-94
2022/10/01 11:01:00;;;;;;;13.15;0.70;;;14.10;99.90;;;;;;5038184;28;20117;-93
2022/10/01 11:03:29;;;;;;;8.32;0.60;;;14.30;99.90;;;;;;5039163;28;20069;-93
2022/10/01 11:06:01;;;;;;;10.25;0.70;;;14.60;99.90;;;;;;5036188;28;20049;-93
2022/10/01 11:08:27;;;;;;;9.60;0.82;;;15.00;99.90;;;;;;5033498;28;20033;-94
2022/10/01 11:10:59;;;;;;;6.35;0.82;;;15.30;99.90;;;;;;5055307;28;20121;-94
2022/10/01 11:14:02;;;;;;;13.05;0.88;;;15.50;99.90;;;;;;5045691;28;20120;-95
2022/10/01 11:17:05;;;;;;;9.88;1.30;;;15.80;99.90;;;;;;5052692;28;20025;-93
2022/10/01 11:19:55;;;;;;;12.35;0.90;;;16.00;99.90;;;;;;5038930;28;20026;-96
2022/10/01 11:22:35;;;;;;;11.07;0.82;;;16.20;99.90;;;;;;5032961;28;20041;-95
2022/10/01 11:25:16;;;;;;;7.00;0.57;;;16.30;99.90;;;;;;5032666;28;20046;-95
2022/10/01 11:28:03;;;;;;;11.57;1.02;;;16.40;99.90;;;;;;5041072;28;20120;-95
2022/10/01 11:31:10;;;;;;;7.97;0.73;;;16.50;99.90;;;;;;5049021;28;20025;-94
2022/10/01 11:33:35;;;;;;;5.72;0.60;;;16.60;99.90;;;;;;5039095;28;20359;-96
2022/10/01 11:36:38;;;;;;;9.25;0.80;;;16.60;99.90;;;;;;5037302;28;20053;-96
2022/10/01 11:39:12;;;;;;;8.18;0.47;;;16.80;99.90;;;;;;5032256;28;20028;-95
2022/10/01 11:41:47;;;;;;;7.68;0.65;;;16.70;99.90;;;;;;5049645;28;20068;-95
2022/10/01 11:44:28;;;;;;;10.75;1.05;;;16.60;99.90;;;;;;5047693;28;20045;-94
2022/10/01 11:47:12;;;;;;;10.00;0.93;;;16.40;99.90;;;;;;5041848;28;20028;-95
2022/10/01 11:50:24;;;;;;;5.68;0.43;;;16.20;99.90;;;;;;5039337;28;20450;-96
2022/10/01 11:52:55;;;;;;;8.10;0.52;;;16.20;99.90;;;;;;5008144;28;20477;-95
2022/10/01 11:58:49;;;;;;;8.48;0.77;;;16.30;99.90;;;;;;5054278;28;20028;-96
2022/10/01 12:01:34;;;;;;;8.82;0.55;;;16.20;99.90;;;;;;5029158;28;20029;-95
2022/10/01 12:04:06;;;;;;;9.57;1.08;;;16.10;99.90;;;;;;5030856;28;20439;-95
2022/10/01 12:06:40;;;;;;;10.13;0.93;;;15.90;99.90;;;;;;5032851;28;20377;-96
2022/10/01 12:09:28;;;;;;;7.38;0.70;;;15.90;99.90;;;;;;5026768;28;20056;-94
2022/10/01 12:12:05;;;;;;;9.05;0.52;;;15.80;99.90;;;;;;5041219;28;20026;-95
2022/10/01 12:14:47;;;;;;;6.85;0.50;;;15.70;99.90;;;;;;5025701;28;20026;-94
2022/10/01 12:17:22;;;;;;;8.75;0.70;;;15.80;99.90;;;;;;5044947;28;20026;-94
2022/10/01 12:19:52;;;;;;;4.80;0.38;;;16.00;99.90;;;;;;5035537;28;20022;-93
2022/10/01 12:22:29;;;;;;;11.43;1.02;;;16.30;99.90;;;;;;5031989;28;20037;-93
2022/10/01 12:24:55;;;;;;;10.30;1.05;;;16.50;99.90;;;;;;5036963;28;20022;-94
2022/10/01 12:27:43;;;;;;;14.07;1.65;;;16.70;99.90;;;;;;5030062;28;20026;-94
2022/10/01 12:30:19;;;;;;;10.93;0.82;;;16.90;99.90;;;;;;5022586;28;20504;-94
2022/10/01 12:33:00;;;;;;;7.78;0.60;;;17.30;99.90;;;;;;5035795;28;20096;-95
2022/10/01 12:35:47;;;;;;;6.93;0.50;;;17.40;99.90;;;;;;5037874;28;20476;-95
2022/10/01 12:38:46;;;;;;;6.68;0.40;;;17.20;99.90;;;;;;5016487;28;20175;-93
2022/10/01 12:41:33;;;;;;;5.88;0.63;;;17.00;99.90;;;;;;5035099;28;20504;-94
2022/10/01 12:44:18;;;;;;;7.78;0.63;;;16.80;99.90;;;;;;5049924;28;20091;-93
2022/10/01 12:47:02;;;;;;;10.10;0.70;;;16.60;99.90;;;;;;5035034;28;20076;-93
2022/10/01 12:49:33;;;;;;;5.38;0.50;;;16.50;99.90;;;;;;5028618;28;20029;-93
2022/10/01 12:52:17;;;;;;;9.07;1.25;;;16.50;99.90;;;;;;5041182;28;20029;-94
2022/10/01 12:55:29;;;;;;;21.83;3.70;;;16.60;99.90;;;;;;5032102;28;20061;-92
2022/10/01 12:58:01;;;;;;;6.05;0.50;;;16.70;99.90;;;;;;4997039;28;20137;-94
2022/10/01 13:00:39;;;;;;;5.45;0.40;;;16.60;99.90;;;;;;5038337;28;20470;-92
2022/10/01 13:03:26;;;;;;;9.35;0.82;;;16.50;99.90;;;;;;5032438;28;20390;-92
2022/10/01 13:06:20;;;;;;;8.57;0.57;;;16.40;99.90;;;;;;5022245;28;20025;-91
2022/10/01 13:09:14;;;;;;;7.25;0.60;;;16.30;99.90;;;;;;5019972;28;20072;-93
2022/10/01 13:11:51;;;;;;;10.55;0.77;;;16.20;99.90;;;;;;5010502;28;20105;-94